createdAt,value
2023-05-09T00:00:13.174Z,100144.97
2023-05-09T00:03:22.335Z,100139.66
2023-05-09T00:06:28.081Z,100139.00
2023-05-09T00:09:31.562Z,100141.59
2023-05-09T00:12:37.188Z,100143.31
2023-05-09T00:15:40.896Z,100139.66
2023-05-09T00:18:44.734Z,100143.78
2023-05-09T00:21:48.437Z,100137.38
2023-05-09T00:24:52.635Z,100128.56
2023-05-09T00:27:57.866Z,100126.69
2023-05-09T00:31:01.694Z,100121.41
2023-05-09T00:34:05.287Z,100117.09
2023-05-09T00:37:08.874Z,100115.97
2023-05-09T00:40:15.024Z,100115.81
2023-05-09T00:43:22.764Z,100108.34
2023-05-09T00:46:26.836Z,100109.75
2023-05-09T00:49:31.185Z,100108.84
2023-05-09T00:52:35.900Z,100111.44
2023-05-09T00:55:40.091Z,100100.91
2023-05-09T00:58:45.594Z,100109.16
2023-05-09T01:01:49.360Z,100099.44
2023-05-09T01:04:53.486Z,100103.97
2023-05-09T01:11:37.698Z,100102.41
2023-05-09T01:14:52.949Z,100094.13
2023-05-09T01:18:01.370Z,100093.94
2023-05-09T01:21:11.741Z,100098.63
2023-05-09T01:24:41.336Z,100095.03
2023-05-09T01:27:55.108Z,100092.72
2023-05-09T01:31:00.859Z,100094.53
2023-05-09T01:34:07.717Z,100091.84
2023-05-09T01:37:14.447Z,100090.31
2023-05-09T01:40:21.585Z,100089.59
2023-05-09T01:43:29.180Z,100090.75
2023-05-09T01:46:35.494Z,100094.34
2023-05-09T01:49:41.386Z,100096.63
2023-05-09T01:52:48.670Z,100087.72
2023-05-09T01:55:53.266Z,100080.28
2023-05-09T01:58:59.262Z,100074.84
2023-05-09T02:02:05.212Z,100077.72
2023-05-09T02:05:15.805Z,100078.13
2023-05-09T02:08:22.346Z,100074.84
2023-05-09T02:11:25.982Z,100074.31
2023-05-09T02:14:33.070Z,100073.47
2023-05-09T02:17:38.186Z,100070.53
2023-05-09T02:20:41.697Z,100073.81
2023-05-09T02:23:46.945Z,100078.72
2023-05-09T02:26:50.884Z,100068.97
2023-05-09T02:29:58.492Z,100069.06
2023-05-09T02:33:11.297Z,100066.25
2023-05-09T02:36:17.796Z,100073.38
2023-05-09T02:39:21.385Z,100069.97
2023-05-09T02:42:30.174Z,100065.53
2023-05-09T02:45:37.593Z,100063.75
2023-05-09T02:48:42.798Z,100063.84
2023-05-09T02:51:46.270Z,100064.13
2023-05-09T02:54:49.902Z,100065.09
2023-05-09T02:58:05.271Z,100058.06
2023-05-09T03:01:16.244Z,100055.28
2023-05-09T03:04:21.242Z,100057.69
2023-05-09T03:07:24.804Z,100061.97
2023-05-09T03:10:28.266Z,100056.94
2023-05-09T03:13:31.970Z,100058.06
2023-05-09T03:16:35.801Z,100058.22
2023-05-09T03:19:41.932Z,100054.50
2023-05-09T03:22:45.494Z,100053.69
2023-05-09T03:25:49.290Z,100056.28
2023-05-09T03:28:53.384Z,100054.13
2023-05-09T03:31:57.069Z,100050.38
2023-05-09T03:35:02.232Z,100057.41
2023-05-09T03:38:06.034Z,100056.38
2023-05-09T03:41:10.114Z,100057.25
2023-05-09T03:44:14.833Z,100060.84
2023-05-09T03:47:18.524Z,100063.00
2023-05-09T03:50:23.399Z,100058.84
2023-05-09T03:53:28.112Z,100054.44
2023-05-09T03:56:32.030Z,100054.59
2023-05-09T03:59:35.868Z,100057.13
2023-05-09T04:02:40.014Z,100060.16
2023-05-09T04:05:45.369Z,100051.50
2023-05-09T04:08:56.738Z,100056.34
2023-05-09T04:12:00.425Z,100055.94
2023-05-09T04:15:04.121Z,100053.81
2023-05-09T04:18:08.548Z,100057.09
2023-05-09T04:21:13.940Z,100056.94
2023-05-09T04:24:18.607Z,100060.00
2023-05-09T04:27:24.752Z,100057.28
2023-05-09T04:30:28.809Z,100060.56
2023-05-09T04:33:33.488Z,100062.44
2023-05-09T04:36:40.642Z,100059.75
2023-05-09T04:39:44.636Z,100064.03
2023-05-09T04:42:55.055Z,100062.44
2023-05-09T04:46:02.684Z,100053.41
2023-05-09T04:49:06.591Z,100052.13
2023-05-09T04:52:11.571Z,100048.06
2023-05-09T04:55:15.763Z,100050.63
2023-05-09T04:58:22.620Z,100049.91
2023-05-09T05:01:27.021Z,100052.72
2023-05-09T05:04:32.772Z,100049.44
2023-05-09T05:07:38.808Z,100049.28
2023-05-09T05:10:42.608Z,100055.06
2023-05-09T05:13:48.959Z,100053.81
2023-05-09T05:16:54.747Z,100060.00
2023-05-09T05:20:00.221Z,100049.94
2023-05-09T05:23:07.193Z,100046.25
2023-05-09T05:26:11.006Z,100048.63
2023-05-09T05:29:15.103Z,100047.69
2023-05-09T05:32:18.883Z,100044.59
2023-05-09T05:35:23.485Z,100053.47
2023-05-09T05:38:29.643Z,100047.19
2023-05-09T05:41:35.346Z,100050.88
2023-05-09T05:44:41.389Z,100041.72
2023-05-09T05:47:45.799Z,100038.88
2023-05-09T05:50:49.688Z,100034.63
2023-05-09T05:53:57.669Z,100030.59
2023-05-09T05:57:02.505Z,100035.19
2023-05-09T06:00:09.542Z,100030.09
2023-05-09T06:03:17.900Z,100029.50
2023-05-09T06:06:28.566Z,100029.63
2023-05-09T06:09:33.985Z,100024.63
2023-05-09T06:12:37.407Z,100035.22
2023-05-09T06:15:41.224Z,100023.69
2023-05-09T06:18:45.274Z,100014.66
2023-05-09T06:21:49.161Z,100003.75
2023-05-09T06:24:54.308Z,100009.28
2023-05-09T06:27:58.181Z,100010.47
2023-05-09T06:31:02.231Z,100007.03
2023-05-09T06:34:06.428Z,100002.78
2023-05-09T06:37:10.218Z,100011.63
2023-05-09T06:40:15.514Z,99997.13
2023-05-09T06:43:19.440Z,100007.28
2023-05-09T06:46:23.388Z,99996.56
2023-05-09T06:49:27.499Z,99996.44
2023-05-09T06:52:31.370Z,99999.00
2023-05-09T06:55:36.518Z,99995.75
2023-05-09T06:58:40.356Z,99992.31
2023-05-09T07:01:43.932Z,100000.06
2023-05-09T07:04:47.303Z,99995.06
2023-05-09T07:07:51.215Z,99994.41
2023-05-09T07:10:56.484Z,99990.31
2023-05-09T07:14:00.589Z,99984.66
2023-05-09T07:17:21.309Z,99983.69
2023-05-09T07:20:26.567Z,99988.06
2023-05-09T07:23:29.991Z,99979.94
2023-05-09T07:26:36.890Z,99969.69
2023-05-09T07:29:40.442Z,99974.28
2023-05-09T07:32:44.042Z,99976.56
2023-05-09T07:35:47.593Z,99966.31
2023-05-09T07:38:53.024Z,99969.50
2023-05-09T07:41:57.930Z,99959.97
2023-05-09T07:45:01.617Z,99959.50
2023-05-09T07:48:05.672Z,99947.53
2023-05-09T07:51:09.421Z,99948.00
2023-05-09T07:54:12.988Z,99954.09
2023-05-09T07:57:18.366Z,99938.56
2023-05-09T08:00:24.116Z,99942.06
2023-05-09T08:03:28.226Z,99936.63
2023-05-09T08:06:31.943Z,99923.66
2023-05-09T08:09:35.638Z,99926.56
2023-05-09T08:12:41.012Z,99937.97
2023-05-09T08:15:44.587Z,99925.25
2023-05-09T08:18:48.465Z,99915.72
2023-05-09T08:21:57.812Z,99919.19
2023-05-09T08:25:01.399Z,99904.28
2023-05-09T08:28:07.101Z,99902.75
2023-05-09T08:31:11.076Z,99893.25
2023-05-09T08:34:14.672Z,99897.38
2023-05-09T08:37:18.381Z,99898.97
2023-05-09T08:40:22.518Z,99896.31
2023-05-09T08:43:30.046Z,99891.97
2023-05-09T08:46:46.961Z,99888.31
2023-05-09T08:49:52.927Z,99896.56
2023-05-09T08:52:56.751Z,99892.38
2023-05-09T08:56:01.405Z,99892.72
2023-05-09T08:59:07.198Z,99896.09
2023-05-09T09:02:14.739Z,99891.22
2023-05-09T09:05:40.129Z,99883.84
2023-05-09T09:08:47.268Z,99888.19
2023-05-09T09:11:51.013Z,99882.53
2023-05-09T09:14:58.240Z,99881.91
2023-05-09T09:18:08.146Z,99871.34
2023-05-09T09:21:14.575Z,99866.50
2023-05-09T09:24:23.692Z,99868.38
2023-05-09T09:27:27.427Z,99862.84
2023-05-09T09:30:32.706Z,99862.22
2023-05-09T09:33:37.654Z,99866.50
2023-05-09T09:36:41.882Z,99857.31
2023-05-09T09:39:55.680Z,99861.38
2023-05-09T09:43:01.813Z,99869.34
2023-05-09T09:46:07.227Z,99866.22
2023-05-09T09:49:11.453Z,99853.94
2023-05-09T09:52:24.904Z,99861.78
2023-05-09T09:55:30.341Z,99854.34
2023-05-09T09:58:35.465Z,99847.16
2023-05-09T10:01:55.886Z,99858.66
2023-05-09T10:05:08.138Z,99841.66
2023-05-09T10:08:11.745Z,99837.91
2023-05-09T10:11:16.656Z,99844.25
2023-05-09T10:14:21.229Z,99835.91
2023-05-09T10:17:27.616Z,99837.66
2023-05-09T10:20:32.006Z,99827.03
2023-05-09T10:23:39.815Z,99830.09
2023-05-09T10:26:47.816Z,99828.94
2023-05-09T10:29:58.921Z,99832.13
2023-05-09T10:33:06.035Z,99823.03
2023-05-09T10:36:10.912Z,99809.09
2023-05-09T10:39:15.191Z,99806.63
2023-05-09T10:42:18.894Z,99798.56
2023-05-09T10:45:24.981Z,99804.00
2023-05-09T10:48:30.319Z,99786.72
2023-05-09T10:51:34.831Z,99792.25
2023-05-09T10:54:38.866Z,99792.06
2023-05-09T10:57:42.449Z,99783.47
2023-05-09T11:00:46.847Z,99785.78
2023-05-09T11:04:00.162Z,99782.88
2023-05-09T11:07:03.888Z,99777.59
2023-05-09T11:10:11.663Z,99763.66
2023-05-09T11:13:19.231Z,99775.78
2023-05-09T11:16:22.790Z,99761.09
2023-05-09T11:19:38.974Z,99755.38
2023-05-09T11:22:44.710Z,99749.22
2023-05-09T11:25:49.016Z,99746.75
2023-05-09T11:28:56.906Z,99746.66
2023-05-09T11:32:07.950Z,99729.22
2023-05-09T11:35:15.649Z,99746.19
2023-05-09T11:38:23.185Z,99722.19
2023-05-09T11:41:27.662Z,99728.88
2023-05-09T11:44:33.804Z,99725.97
2023-05-09T11:47:38.271Z,99716.94
2023-05-09T11:50:43.190Z,99713.94
2023-05-09T11:53:47.158Z,99717.59
2023-05-09T11:56:50.896Z,99706.47
2023-05-09T11:59:54.599Z,99694.25
2023-05-09T12:02:58.167Z,99688.59
2023-05-09T12:06:03.039Z,99688.03
2023-05-09T12:09:06.838Z,99697.47
2023-05-09T12:12:12.497Z,99697.75
2023-05-09T12:15:17.030Z,99698.97
2023-05-09T12:18:20.970Z,99700.03
2023-05-09T12:21:25.749Z,99687.31
2023-05-09T12:24:30.807Z,99686.66
2023-05-09T12:27:36.019Z,99683.56
2023-05-09T12:30:39.860Z,99673.47
2023-05-09T12:33:43.507Z,99663.72
2023-05-09T12:36:51.085Z,99671.06
2023-05-09T12:40:05.156Z,99671.88
2023-05-09T12:43:08.944Z,99661.00
2023-05-09T12:46:12.449Z,99652.81
2023-05-09T12:49:21.894Z,99653.50
2023-05-09T12:52:27.374Z,99653.63
2023-05-09T12:55:31.900Z,99644.16
2023-05-09T12:58:35.659Z,99643.31
2023-05-09T13:01:39.069Z,99637.50
2023-05-09T13:04:42.599Z,99629.19
2023-05-09T13:07:49.544Z,99634.56
2023-05-09T13:11:00.709Z,99620.72
2023-05-09T13:14:11.830Z,99618.50
2023-05-09T13:17:15.924Z,99623.31
2023-05-09T13:20:20.121Z,99615.00
2023-05-09T13:23:25.037Z,99610.69
2023-05-09T13:26:28.677Z,99602.34
2023-05-09T13:29:32.341Z,99609.31
2023-05-09T13:32:36.797Z,99606.88
2023-05-09T13:35:40.761Z,99595.84
2023-05-09T13:38:45.899Z,99605.19
2023-05-09T13:41:51.415Z,99600.97
2023-05-09T13:44:55.778Z,99585.72
2023-05-09T13:47:59.373Z,99586.38
2023-05-09T13:51:03.652Z,99588.50
2023-05-09T13:54:12.790Z,99570.34
2023-05-09T13:57:16.531Z,99568.16
2023-05-09T14:00:23.479Z,99572.31
2023-05-09T14:03:27.638Z,99563.06
2023-05-09T14:06:31.175Z,99562.56
2023-05-09T14:09:42.417Z,99558.34
2023-05-09T14:12:47.300Z,99551.16
2023-05-09T14:15:53.334Z,99557.38
2023-05-09T14:18:57.786Z,99549.78
2023-05-09T14:22:01.168Z,99559.72
2023-05-09T14:25:06.541Z,99554.72
2023-05-09T14:28:10.892Z,99540.59
2023-05-09T14:31:15.354Z,99544.88
2023-05-09T14:34:20.463Z,99541.75
2023-05-09T14:37:24.864Z,99540.50
2023-05-09T14:40:32.224Z,99538.38
2023-05-09T14:43:36.102Z,99527.16
2023-05-09T14:46:39.840Z,99526.16
2023-05-09T14:49:43.512Z,99527.00
2023-05-09T14:52:47.007Z,99528.88
2023-05-09T14:55:52.318Z,99516.41
2023-05-09T14:58:55.972Z,99521.38
2023-05-09T15:01:59.559Z,99515.13
2023-05-09T15:05:03.980Z,99512.44
2023-05-09T15:08:08.174Z,99504.06
2023-05-09T15:11:13.416Z,99500.84
2023-05-09T15:14:17.531Z,99498.53
2023-05-09T15:17:21.208Z,99497.19
2023-05-09T15:20:24.716Z,99484.94
2023-05-09T15:23:29.120Z,99488.69
2023-05-09T15:26:34.319Z,99487.81
2023-05-09T15:29:37.870Z,99477.75
2023-05-09T15:32:41.615Z,99467.13
2023-05-09T15:35:45.595Z,99470.81
2023-05-09T15:38:49.889Z,99466.06
2023-05-09T15:41:54.819Z,99467.91
2023-05-09T15:44:58.519Z,99454.44
2023-05-09T15:48:02.143Z,99461.25
2023-05-09T15:51:06.350Z,99465.22
2023-05-09T15:54:10.589Z,99455.09
2023-05-09T15:57:16.903Z,99448.31
2023-05-09T16:00:20.704Z,99442.50
2023-05-09T16:03:25.117Z,99442.16
2023-05-09T16:06:29.601Z,99453.50
2023-05-09T16:09:33.509Z,99433.91
2023-05-09T16:12:38.931Z,99434.47
2023-05-09T16:15:42.695Z,99429.44
2023-05-09T16:18:46.314Z,99434.28
2023-05-09T16:21:50.321Z,99439.16
2023-05-09T16:24:54.545Z,99431.16
2023-05-09T16:27:59.521Z,99425.63
2023-05-09T16:31:04.986Z,99422.53
2023-05-09T16:34:08.677Z,99421.38
2023-05-09T16:37:12.577Z,99410.16
2023-05-09T16:40:16.878Z,99406.75
2023-05-09T16:43:22.259Z,99396.88
2023-05-09T16:46:25.929Z,99405.72
2023-05-09T16:49:29.737Z,99400.31
2023-05-09T16:52:33.433Z,99400.22
2023-05-09T16:55:37.553Z,99399.88
2023-05-09T16:58:45.573Z,99400.56
2023-05-09T17:01:49.563Z,99387.59
2023-05-09T17:04:53.427Z,99384.56
2023-05-09T17:07:57.255Z,99383.34
2023-05-09T17:11:00.985Z,99382.63
2023-05-09T17:14:06.260Z,99373.38
2023-05-09T17:17:13.142Z,99371.53
2023-05-09T17:20:20.183Z,99365.75
2023-05-09T17:23:23.845Z,99371.56
2023-05-09T17:26:28.036Z,99368.19
2023-05-09T17:29:33.271Z,99369.63
2023-05-09T17:32:36.932Z,99370.00
2023-05-09T17:35:40.733Z,99366.47
2023-05-09T17:38:44.336Z,99371.66
2023-05-09T17:41:48.117Z,99365.81
2023-05-09T17:44:53.383Z,99376.16
2023-05-09T17:47:57.117Z,99365.94
2023-05-09T17:51:01.028Z,99367.78
2023-05-09T17:54:05.740Z,99360.69
2023-05-09T17:57:09.628Z,99364.69
2023-05-09T18:00:16.608Z,99361.28
2023-05-09T18:03:20.848Z,99363.84
2023-05-09T18:06:24.588Z,99366.59
2023-05-09T18:09:28.321Z,99369.84
2023-05-09T18:12:36.893Z,99369.00
2023-05-09T18:15:42.375Z,99369.72
2023-05-09T18:18:46.065Z,99368.59
2023-05-09T18:21:53.207Z,99363.81
2023-05-09T18:24:57.053Z,99365.22
2023-05-09T18:28:00.792Z,99369.38
2023-05-09T18:31:06.425Z,99362.66
2023-05-09T18:34:10.467Z,99364.41
2023-05-09T18:37:14.401Z,99368.91
2023-05-09T18:40:18.589Z,99367.44
2023-05-09T18:43:22.453Z,99363.19
2023-05-09T18:46:28.075Z,99369.69
2023-05-09T18:49:31.841Z,99369.28
2023-05-09T18:52:35.714Z,99370.03
2023-05-09T18:55:39.257Z,99370.94
2023-05-09T18:58:42.841Z,99370.44
2023-05-09T19:01:47.807Z,99362.00
2023-05-09T19:04:51.796Z,99370.94
2023-05-09T19:07:55.344Z,99362.09
2023-05-09T19:10:58.961Z,99362.41
2023-05-09T19:14:02.626Z,99364.56
2023-05-09T19:17:08.165Z,99359.59
2023-05-09T19:20:13.901Z,99367.06
2023-05-09T19:23:17.734Z,99357.16
2023-05-09T19:26:22.190Z,99357.13
2023-05-09T19:29:25.802Z,99356.50
2023-05-09T19:32:30.863Z,99358.31
2023-05-09T19:35:34.421Z,99354.28
2023-05-09T19:38:37.989Z,99350.44
2023-05-09T19:41:41.890Z,99347.91
2023-05-09T19:44:46.720Z,99349.09
2023-05-09T19:47:52.082Z,99347.00
2023-05-09T19:50:58.345Z,99344.91
2023-05-09T19:54:01.874Z,99350.66
2023-05-09T19:57:06.950Z,99343.38
2023-05-09T20:00:11.550Z,99339.91
2023-05-09T20:03:17.665Z,99342.06
2023-05-09T20:06:21.298Z,99344.72
2023-05-09T20:09:25.286Z,99345.28
2023-05-09T20:12:30.240Z,99339.94
2023-05-09T20:15:35.042Z,99339.28
2023-05-09T20:18:40.286Z,99331.31
2023-05-09T20:21:43.877Z,99324.00
2023-05-09T20:24:47.331Z,99331.69
2023-05-09T20:27:51.030Z,99323.34
2023-05-09T20:30:54.614Z,99320.97
2023-05-09T20:34:00.454Z,99320.69
2023-05-09T20:37:04.299Z,99313.59
2023-05-09T20:40:09.350Z,99316.25
2023-05-09T20:43:12.885Z,99317.91
2023-05-09T20:46:16.515Z,99310.56
2023-05-09T20:49:21.558Z,99309.25
2023-05-09T20:52:24.947Z,99298.72
2023-05-09T20:55:28.415Z,99307.91
2023-05-09T20:58:34.820Z,99307.81
2023-05-09T21:01:40.313Z,99302.41
2023-05-09T21:04:45.297Z,99297.03
2023-05-09T21:07:48.861Z,99297.88
2023-05-09T21:10:54.441Z,99301.88
2023-05-09T21:13:57.950Z,99297.13
2023-05-09T21:17:01.611Z,99298.16
2023-05-09T21:20:07.956Z,99290.69
2023-05-09T21:23:11.876Z,99287.47
2023-05-09T21:26:15.486Z,99284.16
2023-05-09T21:29:18.916Z,99277.97
2023-05-09T21:32:22.358Z,99278.72
2023-05-09T21:35:27.450Z,99278.44
2023-05-09T21:38:31.113Z,99278.25
2023-05-09T21:41:34.683Z,99277.09
2023-05-09T21:44:38.693Z,99277.00
2023-05-09T21:47:42.598Z,99273.94
2023-05-09T21:50:47.707Z,99272.84
2023-05-09T21:53:51.180Z,99269.50
2023-05-09T21:56:54.780Z,99277.03
2023-05-09T22:00:01.709Z,99270.66
2023-05-09T22:03:34.536Z,99274.88
2023-05-09T22:06:41.856Z,99275.09
2023-05-09T22:09:45.411Z,99269.09
2023-05-09T22:12:49.069Z,99269.69
2023-05-09T22:15:52.690Z,99270.34
2023-05-09T22:18:56.211Z,99259.91
2023-05-09T22:22:01.181Z,99263.13
2023-05-09T22:25:05.491Z,99258.03
2023-05-09T22:28:09.280Z,99254.78
2023-05-09T22:31:12.823Z,99255.84
2023-05-09T22:34:16.761Z,99254.03
2023-05-09T22:37:21.786Z,99248.50
2023-05-09T22:40:26.423Z,99245.44
2023-05-09T22:43:38.678Z,99247.00
2023-05-09T22:46:43.217Z,99239.38
2023-05-09T22:49:47.006Z,99244.63
2023-05-09T22:52:51.832Z,99243.00
2023-05-09T22:55:55.919Z,99237.84
2023-05-09T22:58:59.459Z,99241.19
2023-05-09T23:02:03.084Z,99239.09
2023-05-09T23:05:08.929Z,99234.28
2023-05-09T23:08:13.902Z,99232.69
2023-05-09T23:11:17.546Z,99230.53
2023-05-09T23:14:21.080Z,99233.19
2023-05-09T23:17:24.618Z,99233.75
2023-05-09T23:20:28.307Z,99229.41
2023-05-09T23:23:33.393Z,99232.84
2023-05-09T23:26:37.181Z,99228.84
2023-05-09T23:29:40.717Z,99225.66
2023-05-09T23:32:44.455Z,99223.63
2023-05-09T23:35:48.035Z,99223.34
2023-05-09T23:38:52.863Z,99230.69
2023-05-09T23:41:56.580Z,99219.38
2023-05-09T23:45:00.549Z,99222.16
2023-05-09T23:48:04.083Z,99224.97
2023-05-09T23:51:07.806Z,99217.31
2023-05-09T23:54:12.610Z,99220.28
2023-05-09T23:57:16.163Z,99216.03
